sensor_id;sensor_type;location;lat;lon;timestamp;temperature;humidity
58582;DHT22;44361;51.476;5.700;2022-07-19T00:02:13;20.80;99.90
58582;DHT22;44361;51.476;5.700;2022-07-19T00:04:39;20.80;99.90
58582;DHT22;44361;51.476;5.700;2022-07-19T00:07:04;20.70;99.90
58582;DHT22;44361;51.476;5.700;2022-07-19T00:09:30;20.70;99.90
58582;DHT22;44361;51.476;5.700;2022-07-19T00:11:56;20.60;99.90
58582;DHT22;44361;51.476;5.700;2022-07-19T00:14:22;20.60;99.90
58582;DHT22;44361;51.476;5.700;2022-07-19T00:16:47;20.60;99.90
58582;DHT22;44361;51.476;5.700;2022-07-19T00:19:13;20.50;99.90
58582;DHT22;44361;51.476;5.700;2022-07-19T00:21:38;20.40;99.90
58582;DHT22;44361;51.476;5.700;2022-07-19T00:24:04;20.40;99.90
58582;DHT22;44361;51.476;5.700;2022-07-19T00:26:30;20.40;99.90
58582;DHT22;44361;51.476;5.700;2022-07-19T00:28:57;20.40;99.90
58582;DHT22;44361;51.476;5.700;2022-07-19T00:31:24;20.30;99.90
58582;DHT22;44361;51.476;5.700;2022-07-19T00:33:49;20.30;99.90
58582;DHT22;44361;51.476;5.700;2022-07-19T00:36:15;20.20;99.90
58582;DHT22;44361;51.476;5.700;2022-07-19T00:38:41;20.20;99.90
58582;DHT22;44361;51.476;5.700;2022-07-19T00:41:07;20.20;99.90
58582;DHT22;44361;51.476;5.700;2022-07-19T00:43:32;20.10;99.90
58582;DHT22;44361;51.476;5.700;2022-07-19T00:45:58;20.00;99.90
58582;DHT22;44361;51.476;5.700;2022-07-19T00:48:24;20.10;99.90
58582;DHT22;44361;51.476;5.700;2022-07-19T00:50:49;20.00;99.90
58582;DHT22;44361;51.476;5.700;2022-07-19T00:53:15;20.10;99.90
58582;DHT22;44361;51.476;5.700;2022-07-19T00:55:43;20.00;99.90
58582;DHT22;44361;51.476;5.700;2022-07-19T00:58:11;20.00;99.90
58582;DHT22;44361;51.476;5.700;2022-07-19T01:00:39;19.90;99.90
58582;DHT22;44361;51.476;5.700;2022-07-19T01:03:06;19.90;99.90
58582;DHT22;44361;51.476;5.700;2022-07-19T01:05:33;19.80;99.90
58582;DHT22;44361;51.476;5.700;2022-07-19T01:07:59;19.80;99.90
58582;DHT22;44361;51.476;5.700;2022-07-19T01:10:26;19.80;99.90
58582;DHT22;44361;51.476;5.700;2022-07-19T01:12:52;19.80;99.90
58582;DHT22;44361;51.476;5.700;2022-07-19T01:15:20;19.70;99.90
58582;DHT22;44361;51.476;5.700;2022-07-19T01:17:47;19.70;99.90
58582;DHT22;44361;51.476;5.700;2022-07-19T01:20:13;19.60;99.90
58582;DHT22;44361;51.476;5.700;2022-07-19T01:22:41;19.60;99.90
58582;DHT22;44361;51.476;5.700;2022-07-19T01:25:07;19.50;99.90
58582;DHT22;44361;51.476;5.700;2022-07-19T01:27:41;19.50;99.90
58582;DHT22;44361;51.476;5.700;2022-07-19T01:30:15;19.50;99.90
58582;DHT22;44361;51.476;5.700;2022-07-19T01:32:41;19.40;99.90
58582;DHT22;44361;51.476;5.700;2022-07-19T01:35:08;19.40;99.90
58582;DHT22;44361;51.476;5.700;2022-07-19T01:37:36;19.30;99.90
58582;DHT22;44361;51.476;5.700;2022-07-19T01:40:07;19.30;99.90
58582;DHT22;44361;51.476;5.700;2022-07-19T01:42:33;19.20;99.90
58582;DHT22;44361;51.476;5.700;2022-07-19T01:44:58;19.20;99.90
58582;DHT22;44361;51.476;5.700;2022-07-19T01:47:24;19.10;99.90
58582;DHT22;44361;51.476;5.700;2022-07-19T01:49:50;19.10;99.90
58582;DHT22;44361;51.476;5.700;2022-07-19T01:52:16;19.10;99.90
58582;DHT22;44361;51.476;5.700;2022-07-19T01:54:41;19.10;99.90
58582;DHT22;44361;51.476;5.700;2022-07-19T01:57:07;19.00;99.90
58582;DHT22;44361;51.476;5.700;2022-07-19T01:59:35;19.00;99.90
58582;DHT22;44361;51.476;5.700;2022-07-19T02:02:00;18.90;99.90
58582;DHT22;44361;51.476;5.700;2022-07-19T02:04:26;18.90;99.90
58582;DHT22;44361;51.476;5.700;2022-07-19T02:06:51;18.80;99.90
58582;DHT22;44361;51.476;5.700;2022-07-19T02:09:17;18.90;99.90
58582;DHT22;44361;51.476;5.700;2022-07-19T02:11:42;18.80;99.90
58582;DHT22;44361;51.476;5.700;2022-07-19T02:14:08;18.80;99.90
58582;DHT22;44361;51.476;5.700;2022-07-19T02:16:36;18.70;99.90
58582;DHT22;44361;51.476;5.700;2022-07-19T02:19:02;18.70;99.90
58582;DHT22;44361;51.476;5.700;2022-07-19T02:21:28;18.70;99.90
58582;DHT22;44361;51.476;5.700;2022-07-19T02:23:54;18.70;99.90
58582;DHT22;44361;51.476;5.700;2022-07-19T02:26:20;18.70;99.90
58582;DHT22;44361;51.476;5.700;2022-07-19T02:28:45;18.60;99.90
58582;DHT22;44361;51.476;5.700;2022-07-19T02:31:11;18.60;99.90
58582;DHT22;44361;51.476;5.700;2022-07-19T02:33:36;18.50;99.90
58582;DHT22;44361;51.476;5.700;2022-07-19T02:36:02;18.50;99.90
58582;DHT22;44361;51.476;5.700;2022-07-19T02:38:29;18.50;99.90
58582;DHT22;44361;51.476;5.700;2022-07-19T02:40:55;18.40;99.90
58582;DHT22;44361;51.476;5.700;2022-07-19T02:43:20;18.40;99.90
58582;DHT22;44361;51.476;5.700;2022-07-19T02:46:01;18.40;99.90
58582;DHT22;44361;51.476;5.700;2022-07-19T02:51:34;18.30;99.90
58582;DHT22;44361;51.476;5.700;2022-07-19T02:54:20;18.30;99.90
58582;DHT22;44361;51.476;5.700;2022-07-19T02:56:46;18.30;99.90
58582;DHT22;44361;51.476;5.700;2022-07-19T02:59:17;18.30;99.90
58582;DHT22;44361;51.476;5.700;2022-07-19T03:01:46;18.20;99.90
58582;DHT22;44361;51.476;5.700;2022-07-19T03:04:14;18.20;99.90
58582;DHT22;44361;51.476;5.700;2022-07-19T03:06:40;18.20;99.90
58582;DHT22;44361;51.476;5.700;2022-07-19T03:09:13;18.10;99.90
58582;DHT22;44361;51.476;5.700;2022-07-19T03:11:42;18.10;99.90
58582;DHT22;44361;51.476;5.700;2022-07-19T03:14:07;18.10;99.90
58582;DHT22;44361;51.476;5.700;2022-07-19T03:16:39;18.10;99.90
58582;DHT22;44361;51.476;5.700;2022-07-19T03:19:04;18.00;99.90
58582;DHT22;44361;51.476;5.700;2022-07-19T03:21:30;18.00;99.90
58582;DHT22;44361;51.476;5.700;2022-07-19T03:23:56;18.00;99.90
58582;DHT22;44361;51.476;5.700;2022-07-19T03:26:31;18.00;99.90
58582;DHT22;44361;51.476;5.700;2022-07-19T03:28:56;18.00;99.90
58582;DHT22;44361;51.476;5.700;2022-07-19T03:31:31;18.10;99.90
58582;DHT22;44361;51.476;5.700;2022-07-19T03:34:06;18.10;99.90
58582;DHT22;44361;51.476;5.700;2022-07-19T03:36:32;18.10;99.90
58582;DHT22;44361;51.476;5.700;2022-07-19T03:38:58;18.10;99.90
58582;DHT22;44361;51.476;5.700;2022-07-19T03:41:29;18.00;99.90
58582;DHT22;44361;51.476;5.700;2022-07-19T03:44:00;18.00;99.90
58582;DHT22;44361;51.476;5.700;2022-07-19T03:46:29;17.90;99.90
58582;DHT22;44361;51.476;5.700;2022-07-19T03:49:02;17.90;99.90
58582;DHT22;44361;51.476;5.700;2022-07-19T03:51:31;17.90;99.90
58582;DHT22;44361;51.476;5.700;2022-07-19T03:53:56;17.90;99.90
58582;DHT22;44361;51.476;5.700;2022-07-19T03:56:22;17.90;99.90
58582;DHT22;44361;51.476;5.700;2022-07-19T04:01:43;18.00;99.90
58582;DHT22;44361;51.476;5.700;2022-07-19T04:04:09;18.00;99.90
58582;DHT22;44361;51.476;5.700;2022-07-19T04:06:40;18.00;99.90
58582;DHT22;44361;51.476;5.700;2022-07-19T04:09:16;18.00;99.90
58582;DHT22;44361;51.476;5.700;2022-07-19T04:11:51;18.10;99.90
58582;DHT22;44361;51.476;5.700;2022-07-19T04:14:16;18.10;99.90
58582;DHT22;44361;51.476;5.700;2022-07-19T04:16:47;18.20;99.90
58582;DHT22;44361;51.476;5.700;2022-07-19T04:19:16;18.30;99.90
58582;DHT22;44361;51.476;5.700;2022-07-19T04:21:42;18.30;99.90
58582;DHT22;44361;51.476;5.700;2022-07-19T04:24:10;18.30;99.90
58582;DHT22;44361;51.476;5.700;2022-07-19T04:26:44;18.40;99.90
58582;DHT22;44361;51.476;5.700;2022-07-19T04:29:16;18.40;99.90
58582;DHT22;44361;51.476;5.700;2022-07-19T04:31:44;18.60;99.90
58582;DHT22;44361;51.476;5.700;2022-07-19T04:34:26;18.70;99.90
58582;DHT22;44361;51.476;5.700;2022-07-19T04:36:57;18.80;99.90
58582;DHT22;44361;51.476;5.700;2022-07-19T04:39:23;18.90;99.90
58582;DHT22;44361;51.476;5.700;2022-07-19T04:41:59;18.90;99.90
58582;DHT22;44361;51.476;5.700;2022-07-19T04:44:27;19.00;99.90
58582;DHT22;44361;51.476;5.700;2022-07-19T04:47:05;19.00;99.90
58582;DHT22;44361;51.476;5.700;2022-07-19T04:49:46;19.10;99.90
58582;DHT22;44361;51.476;5.700;2022-07-19T04:52:12;19.20;99.90
58582;DHT22;44361;51.476;5.700;2022-07-19T04:54:43;19.20;99.90
58582;DHT22;44361;51.476;5.700;2022-07-19T04:57:11;19.30;99.90
58582;DHT22;44361;51.476;5.700;2022-07-19T04:59:39;19.40;99.90
58582;DHT22;44361;51.476;5.700;2022-07-19T05:02:05;19.50;99.90
58582;DHT22;44361;51.476;5.700;2022-07-19T05:04:36;19.60;99.90
58582;DHT22;44361;51.476;5.700;2022-07-19T05:07:07;19.80;99.90
58582;DHT22;44361;51.476;5.700;2022-07-19T05:09:41;19.90;99.90
58582;DHT22;44361;51.476;5.700;2022-07-19T05:12:07;20.10;99.90
58582;DHT22;44361;51.476;5.700;2022-07-19T05:14:37;20.70;99.90
58582;DHT22;44361;51.476;5.700;2022-07-19T05:17:19;21.50;99.90
58582;DHT22;44361;51.476;5.700;2022-07-19T05:19:48;22.20;99.90
58582;DHT22;44361;51.476;5.700;2022-07-19T05:22:19;22.90;99.90
58582;DHT22;44361;51.476;5.700;2022-07-19T05:25:03;23.50;99.30
58582;DHT22;44361;51.476;5.700;2022-07-19T05:27:29;24.10;98.30
58582;DHT22;44361;51.476;5.700;2022-07-19T05:29:58;24.70;97.50
58582;DHT22;44361;51.476;5.700;2022-07-19T05:32:26;25.00;96.80
58582;DHT22;44361;51.476;5.700;2022-07-19T05:34:55;25.50;95.40
58582;DHT22;44361;51.476;5.700;2022-07-19T05:37:21;25.80;94.60
58582;DHT22;44361;51.476;5.700;2022-07-19T05:40:04;26.10;93.60
58582;DHT22;44361;51.476;5.700;2022-07-19T05:42:30;26.30;92.80
58582;DHT22;44361;51.476;5.700;2022-07-19T05:44:56;26.60;92.10
58582;DHT22;44361;51.476;5.700;2022-07-19T05:47:21;26.80;91.80
58582;DHT22;44361;51.476;5.700;2022-07-19T05:49:47;27.00;90.10
58582;DHT22;44361;51.476;5.700;2022-07-19T05:52:12;27.40;90.00
58582;DHT22;44361;51.476;5.700;2022-07-19T05:54:38;27.60;87.80
58582;DHT22;44361;51.476;5.700;2022-07-19T05:57:04;27.60;86.50
58582;DHT22;44361;51.476;5.700;2022-07-19T05:59:29;27.70;84.80
58582;DHT22;44361;51.476;5.700;2022-07-19T06:01:55;27.60;85.00
58582;DHT22;44361;51.476;5.700;2022-07-19T06:04:20;27.90;83.70
58582;DHT22;44361;51.476;5.700;2022-07-19T06:06:46;28.00;82.50
58582;DHT22;44361;51.476;5.700;2022-07-19T06:09:12;28.00;81.70
58582;DHT22;44361;51.476;5.700;2022-07-19T06:11:41;27.90;79.90
58582;DHT22;44361;51.476;5.700;2022-07-19T06:14:07;27.60;79.80
58582;DHT22;44361;51.476;5.700;2022-07-19T06:16:35;27.40;81.00
58582;DHT22;44361;51.476;5.700;2022-07-19T06:19:01;27.20;80.60
58582;DHT22;44361;51.476;5.700;2022-07-19T06:21:27;27.50;80.40
58582;DHT22;44361;51.476;5.700;2022-07-19T06:23:52;27.70;80.10
58582;DHT22;44361;51.476;5.700;2022-07-19T06:26:18;27.80;78.70
58582;DHT22;44361;51.476;5.700;2022-07-19T06:28:43;28.10;77.90
58582;DHT22;44361;51.476;5.700;2022-07-19T06:31:10;28.10;76.80
58582;DHT22;44361;51.476;5.700;2022-07-19T06:33:40;28.00;76.20
58582;DHT22;44361;51.476;5.700;2022-07-19T06:36:07;28.00;76.40
58582;DHT22;44361;51.476;5.700;2022-07-19T06:38:32;27.80;77.00
58582;DHT22;44361;51.476;5.700;2022-07-19T06:40:58;27.80;77.50
58582;DHT22;44361;51.476;5.700;2022-07-19T06:43:23;28.10;76.50
58582;DHT22;44361;51.476;5.700;2022-07-19T06:45:49;28.20;75.70
58582;DHT22;44361;51.476;5.700;2022-07-19T06:48:15;28.60;75.80
58582;DHT22;44361;51.476;5.700;2022-07-19T06:50:40;29.00;74.80
58582;DHT22;44361;51.476;5.700;2022-07-19T06:53:06;28.80;73.20
58582;DHT22;44361;51.476;5.700;2022-07-19T06:55:31;28.70;74.40
58582;DHT22;44361;51.476;5.700;2022-07-19T06:57:57;28.80;76.20
58582;DHT22;44361;51.476;5.700;2022-07-19T07:00:23;29.00;77.70
58582;DHT22;44361;51.476;5.700;2022-07-19T07:02:48;29.00;79.00
58582;DHT22;44361;51.476;5.700;2022-07-19T07:05:14;29.20;75.80
58582;DHT22;44361;51.476;5.700;2022-07-19T07:07:40;29.10;73.30
58582;DHT22;44361;51.476;5.700;2022-07-19T07:10:07;29.10;74.00
58582;DHT22;44361;51.476;5.700;2022-07-19T07:12:33;29.10;72.20
58582;DHT22;44361;51.476;5.700;2022-07-19T07:14:59;29.00;72.00
58582;DHT22;44361;51.476;5.700;2022-07-19T07:17:24;28.90;74.70
58582;DHT22;44361;51.476;5.700;2022-07-19T07:19:50;29.00;74.70
58582;DHT22;44361;51.476;5.700;2022-07-19T07:22:15;29.20;73.30
58582;DHT22;44361;51.476;5.700;2022-07-19T07:24:41;29.40;71.10
58582;DHT22;44361;51.476;5.700;2022-07-19T07:27:07;29.40;69.90
58582;DHT22;44361;51.476;5.700;2022-07-19T07:29:33;29.50;69.60
58582;DHT22;44361;51.476;5.700;2022-07-19T07:31:58;29.50;69.20
58582;DHT22;44361;51.476;5.700;2022-07-19T07:34:24;29.30;70.60
58582;DHT22;44361;51.476;5.700;2022-07-19T07:36:50;29.50;70.30
58582;DHT22;44361;51.476;5.700;2022-07-19T07:39:15;29.40;69.20
58582;DHT22;44361;51.476;5.700;2022-07-19T07:41:41;29.30;70.00
58582;DHT22;44361;51.476;5.700;2022-07-19T07:44:07;29.40;69.20
58582;DHT22;44361;51.476;5.700;2022-07-19T07:46:32;29.60;70.50
58582;DHT22;44361;51.476;5.700;2022-07-19T07:48:58;29.70;68.90
58582;DHT22;44361;51.476;5.700;2022-07-19T07:51:24;29.70;69.20
58582;DHT22;44361;51.476;5.700;2022-07-19T07:53:50;29.80;69.00
58582;DHT22;44361;51.476;5.700;2022-07-19T07:56:15;29.90;71.70
58582;DHT22;44361;51.476;5.700;2022-07-19T07:58:42;30.00;70.60
58582;DHT22;44361;51.476;5.700;2022-07-19T08:01:08;30.00;71.20
58582;DHT22;44361;51.476;5.700;2022-07-19T08:03:33;30.00;71.10
58582;DHT22;44361;51.476;5.700;2022-07-19T08:05:59;30.20;70.80
58582;DHT22;44361;51.476;5.700;2022-07-19T08:08:25;30.20;70.30
58582;DHT22;44361;51.476;5.700;2022-07-19T08:10:55;30.30;70.90
58582;DHT22;44361;51.476;5.700;2022-07-19T08:13:21;30.50;69.10
58582;DHT22;44361;51.476;5.700;2022-07-19T08:15:47;30.70;69.10
58582;DHT22;44361;51.476;5.700;2022-07-19T08:18:14;30.80;69.50
58582;DHT22;44361;51.476;5.700;2022-07-19T08:20:39;31.10;68.60
58582;DHT22;44361;51.476;5.700;2022-07-19T08:23:05;31.50;67.40
58582;DHT22;44361;51.476;5.700;2022-07-19T08:25:31;31.80;61.90
58582;DHT22;44361;51.476;5.700;2022-07-19T08:27:58;31.90;62.20
58582;DHT22;44361;51.476;5.700;2022-07-19T08:30:23;32.20;60.40
58582;DHT22;44361;51.476;5.700;2022-07-19T08:32:49;32.20;58.90
58582;DHT22;44361;51.476;5.700;2022-07-19T08:35:14;32.20;58.70
58582;DHT22;44361;51.476;5.700;2022-07-19T08:37:40;32.30;59.10
58582;DHT22;44361;51.476;5.700;2022-07-19T08:40:06;32.70;58.90
58582;DHT22;44361;51.476;5.700;2022-07-19T08:42:32;33.00;58.40
58582;DHT22;44361;51.476;5.700;2022-07-19T08:45:00;33.00;56.80
58582;DHT22;44361;51.476;5.700;2022-07-19T08:47:28;33.10;57.80
58582;DHT22;44361;51.476;5.700;2022-07-19T08:49:54;33.30;58.40
58582;DHT22;44361;51.476;5.700;2022-07-19T08:52:20;33.50;56.10
58582;DHT22;44361;51.476;5.700;2022-07-19T08:54:46;33.60;55.50
58582;DHT22;44361;51.476;5.700;2022-07-19T08:57:13;33.20;56.70
58582;DHT22;44361;51.476;5.700;2022-07-19T08:59:59;33.10;56.20
58582;DHT22;44361;51.476;5.700;2022-07-19T09:02:24;33.20;55.40
58582;DHT22;44361;51.476;5.700;2022-07-19T09:05:08;33.50;54.00
58582;DHT22;44361;51.476;5.700;2022-07-19T09:07:38;33.70;52.60
58582;DHT22;44361;51.476;5.700;2022-07-19T09:10:23;33.80;54.10
58582;DHT22;44361;51.476;5.700;2022-07-19T09:13:14;33.70;53.00
58582;DHT22;44361;51.476;5.700;2022-07-19T09:15:46;33.60;53.90
58582;DHT22;44361;51.476;5.700;2022-07-19T09:18:29;33.90;55.10
58582;DHT22;44361;51.476;5.700;2022-07-19T09:21:03;34.30;53.30
58582;DHT22;44361;51.476;5.700;2022-07-19T09:23:29;34.70;52.80
58582;DHT22;44361;51.476;5.700;2022-07-19T09:26:00;34.90;52.70
58582;DHT22;44361;51.476;5.700;2022-07-19T09:28:27;34.90;51.80
58582;DHT22;44361;51.476;5.700;2022-07-19T09:30:55;34.70;51.80
58582;DHT22;44361;51.476;5.700;2022-07-19T09:33:26;34.40;51.80
58582;DHT22;44361;51.476;5.700;2022-07-19T09:35:55;34.20;52.70
58582;DHT22;44361;51.476;5.700;2022-07-19T09:38:25;34.00;51.80
58582;DHT22;44361;51.476;5.700;2022-07-19T09:40:54;34.10;52.20
58582;DHT22;44361;51.476;5.700;2022-07-19T09:43:21;34.30;52.80
58582;DHT22;44361;51.476;5.700;2022-07-19T09:45:48;34.40;52.40
58582;DHT22;44361;51.476;5.700;2022-07-19T09:48:15;34.60;51.70
58582;DHT22;44361;51.476;5.700;2022-07-19T09:50:43;34.80;51.90
58582;DHT22;44361;51.476;5.700;2022-07-19T09:53:10;35.00;51.50
58582;DHT22;44361;51.476;5.700;2022-07-19T09:55:36;35.00;51.00
58582;DHT22;44361;51.476;5.700;2022-07-19T09:58:02;34.90;51.20
58582;DHT22;44361;51.476;5.700;2022-07-19T10:00:29;35.10;51.10
58582;DHT22;44361;51.476;5.700;2022-07-19T10:02:57;35.20;50.20
58582;DHT22;44361;51.476;5.700;2022-07-19T10:05:24;35.40;51.40
58582;DHT22;44361;51.476;5.700;2022-07-19T10:07:50;35.40;51.00
58582;DHT22;44361;51.476;5.700;2022-07-19T10:10:18;35.40;51.50
58582;DHT22;44361;51.476;5.700;2022-07-19T10:12:46;35.50;51.40
58582;DHT22;44361;51.476;5.700;2022-07-19T10:15:14;35.40;50.70
58582;DHT22;44361;51.476;5.700;2022-07-19T10:18:04;35.30;51.90
58582;DHT22;44361;51.476;5.700;2022-07-19T10:20:33;35.10;50.80
58582;DHT22;44361;51.476;5.700;2022-07-19T10:23:00;35.20;50.80
58582;DHT22;44361;51.476;5.700;2022-07-19T10:25:38;35.50;51.10
58582;DHT22;44361;51.476;5.700;2022-07-19T10:28:04;35.70;48.90
58582;DHT22;44361;51.476;5.700;2022-07-19T10:30:40;36.10;47.80
58582;DHT22;44361;51.476;5.700;2022-07-19T10:33:32;36.20;48.70
58582;DHT22;44361;51.476;5.700;2022-07-19T10:36:31;36.30;47.70
58582;DHT22;44361;51.476;5.700;2022-07-19T10:42:14;35.90;48.50
58582;DHT22;44361;51.476;5.700;2022-07-19T10:50:08;36.20;48.40
58582;DHT22;44361;51.476;5.700;2022-07-19T10:52:36;36.20;47.80
58582;DHT22;44361;51.476;5.700;2022-07-19T11:00:26;36.40;44.70
58582;DHT22;44361;51.476;5.700;2022-07-19T11:02:53;36.80;45.60
58582;DHT22;44361;51.476;5.700;2022-07-19T11:05:49;36.80;46.20
58582;DHT22;44361;51.476;5.700;2022-07-19T11:08:15;36.80;45.70
58582;DHT22;44361;51.476;5.700;2022-07-19T11:10:41;36.90;44.60
58582;DHT22;44361;51.476;5.700;2022-07-19T11:13:07;36.90;45.10
58582;DHT22;44361;51.476;5.700;2022-07-19T11:15:33;36.90;44.40
58582;DHT22;44361;51.476;5.700;2022-07-19T11:18:06;37.10;43.80
58582;DHT22;44361;51.476;5.700;2022-07-19T11:20:34;36.90;43.00
58582;DHT22;44361;51.476;5.700;2022-07-19T11:23:02;36.80;42.50
58582;DHT22;44361;51.476;5.700;2022-07-19T11:25:31;36.70;41.90
58582;DHT22;44361;51.476;5.700;2022-07-19T11:27:58;36.80;42.40
58582;DHT22;44361;51.476;5.700;2022-07-19T11:30:25;37.00;40.40
58582;DHT22;44361;51.476;5.700;2022-07-19T11:32:53;36.80;41.00
58582;DHT22;44361;51.476;5.700;2022-07-19T11:35:19;36.80;40.90
58582;DHT22;44361;51.476;5.700;2022-07-19T11:37:44;36.90;41.80
58582;DHT22;44361;51.476;5.700;2022-07-19T11:40:11;37.20;41.60
58582;DHT22;44361;51.476;5.700;2022-07-19T11:42:43;37.00;41.70
58582;DHT22;44361;51.476;5.700;2022-07-19T11:47:44;36.90;41.80
58582;DHT22;44361;51.476;5.700;2022-07-19T11:50:11;37.20;41.70
58582;DHT22;44361;51.476;5.700;2022-07-19T11:53:02;37.40;41.50
58582;DHT22;44361;51.476;5.700;2022-07-19T11:55:37;37.60;40.90
58582;DHT22;44361;51.476;5.700;2022-07-19T11:58:07;37.50;40.70
58582;DHT22;44361;51.476;5.700;2022-07-19T12:00:34;37.30;40.90
58582;DHT22;44361;51.476;5.700;2022-07-19T12:03:02;37.30;41.60
58582;DHT22;44361;51.476;5.700;2022-07-19T12:05:39;37.40;41.30
58582;DHT22;44361;51.476;5.700;2022-07-19T12:08:07;37.40;41.60
58582;DHT22;44361;51.476;5.700;2022-07-19T12:13:04;38.00;41.80
58582;DHT22;44361;51.476;5.700;2022-07-19T12:15:47;37.90;41.40
58582;DHT22;44361;51.476;5.700;2022-07-19T12:18:18;37.80;42.20
58582;DHT22;44361;51.476;5.700;2022-07-19T12:20:45;37.70;42.50
58582;DHT22;44361;51.476;5.700;2022-07-19T12:23:16;37.60;42.60
58582;DHT22;44361;51.476;5.700;2022-07-19T12:25:42;37.70;42.50
58582;DHT22;44361;51.476;5.700;2022-07-19T12:28:07;37.50;41.80
58582;DHT22;44361;51.476;5.700;2022-07-19T12:30:33;37.40;42.80
58582;DHT22;44361;51.476;5.700;2022-07-19T12:33:25;37.20;42.30
58582;DHT22;44361;51.476;5.700;2022-07-19T12:35:51;37.20;42.00
58582;DHT22;44361;51.476;5.700;2022-07-19T12:38:16;37.40;41.80
58582;DHT22;44361;51.476;5.700;2022-07-19T12:40:43;37.40;41.80
58582;DHT22;44361;51.476;5.700;2022-07-19T12:43:09;37.40;41.40
58582;DHT22;44361;51.476;5.700;2022-07-19T12:45:43;37.50;41.10
58582;DHT22;44361;51.476;5.700;2022-07-19T12:48:14;37.60;41.40
58582;DHT22;44361;51.476;5.700;2022-07-19T12:50:45;37.70;41.70
58582;DHT22;44361;51.476;5.700;2022-07-19T12:53:13;37.70;41.20
58582;DHT22;44361;51.476;5.700;2022-07-19T12:55:41;37.80;40.20
58582;DHT22;44361;51.476;5.700;2022-07-19T12:58:09;38.10;40.10
58582;DHT22;44361;51.476;5.700;2022-07-19T13:00:36;38.20;40.00
58582;DHT22;44361;51.476;5.700;2022-07-19T13:03:03;38.20;40.10
58582;DHT22;44361;51.476;5.700;2022-07-19T13:05:30;38.30;39.90
58582;DHT22;44361;51.476;5.700;2022-07-19T13:07:56;38.30;39.40
58582;DHT22;44361;51.476;5.700;2022-07-19T13:10:23;38.50;39.70
58582;DHT22;44361;51.476;5.700;2022-07-19T13:12:49;38.50;39.00
58582;DHT22;44361;51.476;5.700;2022-07-19T13:15:15;38.20;38.90
58582;DHT22;44361;51.476;5.700;2022-07-19T13:17:41;38.10;38.60
58582;DHT22;44361;51.476;5.700;2022-07-19T13:20:07;38.30;38.80
58582;DHT22;44361;51.476;5.700;2022-07-19T13:22:34;38.50;38.20
58582;DHT22;44361;51.476;5.700;2022-07-19T13:25:00;38.40;38.70
58582;DHT22;44361;51.476;5.700;2022-07-19T13:27:27;38.50;38.90
58582;DHT22;44361;51.476;5.700;2022-07-19T13:29:52;38.50;38.60
58582;DHT22;44361;51.476;5.700;2022-07-19T13:32:18;38.50;38.50
58582;DHT22;44361;51.476;5.700;2022-07-19T13:34:43;38.30;38.50
58582;DHT22;44361;51.476;5.700;2022-07-19T13:37:09;38.30;38.40
58582;DHT22;44361;51.476;5.700;2022-07-19T13:39:35;38.50;38.70
58582;DHT22;44361;51.476;5.700;2022-07-19T13:42:01;38.70;38.70
58582;DHT22;44361;51.476;5.700;2022-07-19T13:44:26;38.70;38.40
58582;DHT22;44361;51.476;5.700;2022-07-19T13:46:52;38.80;37.70
58582;DHT22;44361;51.476;5.700;2022-07-19T13:49:17;38.90;38.20
58582;DHT22;44361;51.476;5.700;2022-07-19T13:51:43;38.90;37.30
58582;DHT22;44361;51.476;5.700;2022-07-19T13:54:09;39.00;36.70
58582;DHT22;44361;51.476;5.700;2022-07-19T13:56:34;39.00;35.50
58582;DHT22;44361;51.476;5.700;2022-07-19T13:59:00;38.70;35.60
58582;DHT22;44361;51.476;5.700;2022-07-19T14:01:26;38.60;35.70
58582;DHT22;44361;51.476;5.700;2022-07-19T14:03:53;38.60;35.80
58582;DHT22;44361;51.476;5.700;2022-07-19T14:06:18;38.50;36.00
58582;DHT22;44361;51.476;5.700;2022-07-19T14:08:44;38.60;36.30
58582;DHT22;44361;51.476;5.700;2022-07-19T14:11:10;38.60;36.20
58582;DHT22;44361;51.476;5.700;2022-07-19T14:13:36;38.60;35.60
58582;DHT22;44361;51.476;5.700;2022-07-19T14:16:02;38.60;35.60
58582;DHT22;44361;51.476;5.700;2022-07-19T14:18:29;38.50;35.20
58582;DHT22;44361;51.476;5.700;2022-07-19T14:20:55;38.40;34.90
58582;DHT22;44361;51.476;5.700;2022-07-19T14:23:21;38.60;34.90
58582;DHT22;44361;51.476;5.700;2022-07-19T14:25:47;38.70;35.20
58582;DHT22;44361;51.476;5.700;2022-07-19T14:28:12;38.80;34.80
58582;DHT22;44361;51.476;5.700;2022-07-19T14:30:38;38.80;34.50
58582;DHT22;44361;51.476;5.700;2022-07-19T14:33:03;39.00;34.20
58582;DHT22;44361;51.476;5.700;2022-07-19T14:35:29;39.10;34.60
58582;DHT22;44361;51.476;5.700;2022-07-19T14:37:55;39.20;33.80
58582;DHT22;44361;51.476;5.700;2022-07-19T14:40:20;39.20;33.80
58582;DHT22;44361;51.476;5.700;2022-07-19T14:42:46;39.20;33.50
58582;DHT22;44361;51.476;5.700;2022-07-19T14:45:12;39.40;33.50
58582;DHT22;44361;51.476;5.700;2022-07-19T14:47:38;39.60;33.40
58582;DHT22;44361;51.476;5.700;2022-07-19T14:50:05;39.50;33.20
58582;DHT22;44361;51.476;5.700;2022-07-19T14:52:31;39.50;33.20
58582;DHT22;44361;51.476;5.700;2022-07-19T14:54:56;39.40;33.00
58582;DHT22;44361;51.476;5.700;2022-07-19T14:57:23;39.30;32.80
58582;DHT22;44361;51.476;5.700;2022-07-19T14:59:49;39.30;33.50
58582;DHT22;44361;51.476;5.700;2022-07-19T15:02:14;39.20;33.10
58582;DHT22;44361;51.476;5.700;2022-07-19T15:04:40;39.10;33.10
58582;DHT22;44361;51.476;5.700;2022-07-19T15:07:06;39.20;33.60
58582;DHT22;44361;51.476;5.700;2022-07-19T15:09:32;39.40;33.00
58582;DHT22;44361;51.476;5.700;2022-07-19T15:11:57;39.60;33.50
58582;DHT22;44361;51.476;5.700;2022-07-19T15:14:29;39.60;32.80
58582;DHT22;44361;51.476;5.700;2022-07-19T15:16:56;39.60;32.30
58582;DHT22;44361;51.476;5.700;2022-07-19T15:19:21;39.70;32.50
58582;DHT22;44361;51.476;5.700;2022-07-19T15:21:47;39.40;32.50
58582;DHT22;44361;51.476;5.700;2022-07-19T15:24:13;39.40;32.70
58582;DHT22;44361;51.476;5.700;2022-07-19T15:26:40;39.50;32.00
58582;DHT22;44361;51.476;5.700;2022-07-19T15:29:05;39.60;32.60
58582;DHT22;44361;51.476;5.700;2022-07-19T15:31:31;39.70;32.30
58582;DHT22;44361;51.476;5.700;2022-07-19T15:33:57;39.60;31.70
58582;DHT22;44361;51.476;5.700;2022-07-19T15:36:24;39.70;32.40
58582;DHT22;44361;51.476;5.700;2022-07-19T15:38:50;40.00;32.10
58582;DHT22;44361;51.476;5.700;2022-07-19T15:41:16;39.90;31.70
58582;DHT22;44361;51.476;5.700;2022-07-19T15:43:45;39.90;31.70
58582;DHT22;44361;51.476;5.700;2022-07-19T15:46:11;39.80;31.60
58582;DHT22;44361;51.476;5.700;2022-07-19T15:48:37;39.80;31.20
58582;DHT22;44361;51.476;5.700;2022-07-19T15:51:06;39.80;31.40
58582;DHT22;44361;51.476;5.700;2022-07-19T15:53:32;39.80;31.70
58582;DHT22;44361;51.476;5.700;2022-07-19T15:55:57;39.80;31.90
58582;DHT22;44361;51.476;5.700;2022-07-19T15:58:23;40.10;31.30
58582;DHT22;44361;51.476;5.700;2022-07-19T16:00:48;40.00;31.70